Ashern, Canada
Current Conditions -  °F | °C
As of 5:07 PM on Friday 19 Dec 2014 (Local Time) from CYDN Reporting Station
Overcast Overcast  
Wind Chill: -5°   Ceiling: 1200
Heat Index: -5°   Visibility: 9mi
Dew Point: -7°   Wind: 2mph
Humidity: 86%   Direction: NA
Pressure: 30"   Gusts: NA
Location:  51.18°N, 98.33°W
Report Text: CYDN 192307Z AUTO VRB02KT 9SM OVC012 M05/M07 A3000 RMK SLP181
Loading
Personal Weather Stations






























Interactive Weather Map New forecast layout! Learn more

10-Day Weather Forecast

Advertisements
Track Severe Weather on mobile